Time;durP1;ratioP1;P1;durP2;ratioP2;P2;SDS_P1;SDS_P2;PMS_P1;PMS_P2;Temp;Humidity;BMP_temperature;BMP_pressure;BME280_temperature;BME280_humidity;BME280_pressure;Samples;Min_cycle;Max_cycle;Signal;HPM_P1;HPM_P2
2021/03/21 00:00:28;;;;;;;9.27;5.07;;;4.80;99.90;;;;;;5046707;28;20270;-72
2021/03/21 00:02:54;;;;;;;10.93;5.30;;;4.80;99.90;;;;;;5040248;28;20298;-73
2021/03/21 00:05:21;;;;;;;12.23;5.13;;;4.80;99.90;;;;;;5036437;28;20687;-74
2021/03/21 00:07:52;;;;;;;13.53;5.77;;;4.80;99.90;;;;;;5035416;28;20234;-74
2021/03/21 00:10:19;;;;;;;14.23;6.40;;;4.80;99.90;;;;;;5035896;28;20309;-75
2021/03/21 00:12:45;;;;;;;14.50;6.93;;;4.80;99.90;;;;;;5036196;28;20290;-73
2021/03/21 00:15:14;;;;;;;15.37;7.70;;;4.90;99.90;;;;;;5037340;28;20330;-73
2021/03/21 00:17:41;;;;;;;15.00;8.00;;;4.90;99.90;;;;;;5036707;28;20302;-75
2021/03/21 00:20:10;;;;;;;17.47;8.07;;;4.80;99.90;;;;;;5037335;28;20339;-74
2021/03/21 00:22:36;;;;;;;18.03;8.17;;;4.90;99.90;;;;;;5041719;28;20239;-73
2021/03/21 00:25:06;;;;;;;20.50;8.03;;;4.80;99.90;;;;;;5039015;28;20232;-73
2021/03/21 00:27:33;;;;;;;22.63;9.03;;;4.80;99.90;;;;;;5035428;28;20326;-74
2021/03/21 00:29:59;;;;;;;26.93;10.23;;;4.80;99.90;;;;;;5037246;28;20707;-74
2021/03/21 00:32:30;;;;;;;21.70;10.17;;;4.80;99.90;;;;;;5037691;28;20278;-76
2021/03/21 00:34:56;;;;;;;19.20;9.87;;;4.80;99.90;;;;;;5035856;28;20726;-75
2021/03/21 00:37:22;;;;;;;27.10;10.90;;;4.70;99.90;;;;;;5033969;28;20309;-76
2021/03/21 00:39:49;;;;;;;20.93;10.53;;;4.70;99.90;;;;;;5033648;28;20310;-75
2021/03/21 00:42:15;;;;;;;24.33;11.07;;;4.70;99.90;;;;;;5031776;28;20290;-76
2021/03/21 00:44:42;;;;;;;19.63;8.87;;;4.70;99.90;;;;;;5026998;28;20246;-75
2021/03/21 00:47:08;;;;;;;20.13;9.47;;;4.70;99.90;;;;;;5040003;28;20290;-74
2021/03/21 00:49:35;;;;;;;18.30;9.23;;;4.70;99.90;;;;;;5030267;28;20385;-75
2021/03/21 00:52:02;;;;;;;17.97;8.73;;;4.70;99.90;;;;;;5033012;28;20325;-75
2021/03/21 00:54:29;;;;;;;20.53;9.60;;;4.70;99.90;;;;;;5031745;28;20292;-75
2021/03/21 00:56:55;;;;;;;19.60;9.97;;;4.70;99.90;;;;;;5030136;28;20227;-75
2021/03/21 00:59:21;;;;;;;23.70;10.70;;;4.70;99.90;;;;;;5033425;28;20286;-75
2021/03/21 01:01:48;;;;;;;25.47;10.90;;;4.70;99.90;;;;;;5033158;28;20305;-76
2021/03/21 01:04:14;;;;;;;24.43;11.47;;;4.70;99.90;;;;;;5033254;28;20215;-75
2021/03/21 01:06:41;;;;;;;23.80;11.27;;;4.60;99.90;;;;;;5036068;28;20313;-75
2021/03/21 01:09:12;;;;;;;25.03;12.00;;;4.70;99.90;;;;;;5041502;28;20286;-75
2021/03/21 01:11:40;;;;;;;29.17;11.90;;;4.60;99.90;;;;;;5035539;28;20214;-75
2021/03/21 01:14:08;;;;;;;28.63;12.17;;;4.70;99.90;;;;;;5037640;28;20727;-75
2021/03/21 01:16:38;;;;;;;25.73;12.47;;;4.60;99.90;;;;;;5035458;28;20227;-75
2021/03/21 01:19:07;;;;;;;28.83;12.67;;;4.60;99.90;;;;;;5040437;28;20214;-75
2021/03/21 01:21:34;;;;;;;26.67;11.60;;;4.60;99.90;;;;;;5038391;28;20773;-75
2021/03/21 01:24:02;;;;;;;27.20;12.40;;;4.60;99.90;;;;;;5034685;28;20345;-75
2021/03/21 01:26:29;;;;;;;26.53;12.33;;;4.50;99.90;;;;;;5037177;28;20231;-75
2021/03/21 01:28:56;;;;;;;27.80;11.97;;;4.60;99.90;;;;;;5034196;28;20286;-75
2021/03/21 01:31:24;;;;;;;29.17;11.97;;;4.60;99.90;;;;;;5037117;28;20254;-75
2021/03/21 01:33:51;;;;;;;24.77;12.20;;;4.60;99.90;;;;;;5039252;28;20302;-75
2021/03/21 01:36:22;;;;;;;25.37;11.77;;;4.50;99.90;;;;;;5041916;28;20312;-75
2021/03/21 01:38:49;;;;;;;27.53;12.33;;;4.50;99.90;;;;;;5036105;28;20647;-75
2021/03/21 01:41:22;;;;;;;23.47;11.77;;;4.50;99.90;;;;;;5040675;28;20887;-75
2021/03/21 01:43:48;;;;;;;27.83;12.53;;;4.50;99.90;;;;;;5039821;28;20237;-76
2021/03/21 01:46:19;;;;;;;27.77;13.07;;;4.50;99.90;;;;;;5038558;28;20330;-76
2021/03/21 01:48:47;;;;;;;28.63;12.07;;;4.50;99.90;;;;;;5032568;28;20239;-75
2021/03/21 01:51:19;;;;;;;29.20;12.80;;;4.50;99.90;;;;;;5034717;28;20259;-75
2021/03/21 01:53:47;;;;;;;24.70;11.73;;;4.50;99.90;;;;;;5039167;28;20303;-75
2021/03/21 01:56:14;;;;;;;28.23;13.20;;;4.50;99.90;;;;;;5038158;28;20298;-76
2021/03/21 01:58:44;;;;;;;27.50;12.67;;;4.50;99.90;;;;;;5042224;28;20291;-75
2021/03/21 02:01:15;;;;;;;26.63;12.10;;;4.50;99.90;;;;;;5036704;28;20305;-74
2021/03/21 02:03:41;;;;;;;24.47;12.50;;;4.40;99.90;;;;;;5035316;28;20231;-75
2021/03/21 02:06:32;;;;;;;27.57;13.03;;;4.40;99.90;;;;;;5036411;28;20223;-75
2021/03/21 02:09:06;;;;;;;26.20;12.93;;;4.40;99.90;;;;;;5036629;28;20265;-75
2021/03/21 02:11:48;;;;;;;30.13;12.73;;;4.30;99.90;;;;;;5032093;28;20228;-76
2021/03/21 02:14:19;;;;;;;26.13;12.47;;;4.40;99.90;;;;;;5038150;28;20275;-75
2021/03/21 02:16:54;;;;;;;28.07;12.63;;;4.40;99.90;;;;;;5034461;28;20688;-74
2021/03/21 02:20:03;;;;;;;27.37;12.67;;;4.40;99.90;;;;;;5036432;28;20203;-75
2021/03/21 02:22:33;;;;;;;28.80;13.10;;;4.40;99.90;;;;;;5027063;28;20207;-74
2021/03/21 02:25:32;;;;;;;27.80;13.27;;;4.50;99.90;;;;;;5032662;28;20198;-74
2021/03/21 02:28:17;;;;;;;30.50;12.77;;;4.40;99.90;;;;;;5031038;28;20204;-74
2021/03/21 02:30:47;;;;;;;30.23;14.13;;;4.40;99.90;;;;;;5036560;28;20396;-74
2021/03/21 02:33:17;;;;;;;29.83;13.53;;;4.40;99.90;;;;;;5033897;28;20390;-74
2021/03/21 02:35:49;;;;;;;28.73;14.03;;;4.30;99.90;;;;;;5046177;28;20257;-74
2021/03/21 02:38:21;;;;;;;31.40;14.97;;;4.40;99.90;;;;;;5048526;28;20586;-74
2021/03/21 02:40:51;;;;;;;30.60;14.73;;;4.40;99.90;;;;;;5041034;28;20259;-75
2021/03/21 02:43:34;;;;;;;33.60;14.27;;;4.40;99.90;;;;;;5037180;28;20386;-74
2021/03/21 02:46:07;;;;;;;30.00;14.37;;;4.40;99.90;;;;;;5041529;28;20220;-75
2021/03/21 02:48:39;;;;;;;30.43;13.90;;;4.40;99.90;;;;;;5035006;28;20203;-73
2021/03/21 02:51:10;;;;;;;29.07;13.67;;;4.40;99.90;;;;;;5041187;28;20309;-74
2021/03/21 02:53:45;;;;;;;28.13;13.50;;;4.40;99.90;;;;;;5042100;28;20206;-75
2021/03/21 02:56:17;;;;;;;29.60;13.90;;;4.40;99.90;;;;;;5037639;28;20238;-75
2021/03/21 02:58:47;;;;;;;28.00;13.60;;;4.40;99.90;;;;;;5041113;28;20210;-74
2021/03/21 03:01:18;;;;;;;30.77;13.67;;;4.40;99.90;;;;;;5038540;28;20262;-75
2021/03/21 03:03:48;;;;;;;27.43;13.30;;;4.30;99.90;;;;;;5033294;28;20301;-74
2021/03/21 03:06:21;;;;;;;27.13;13.03;;;4.30;99.90;;;;;;5036431;28;20229;-75
2021/03/21 03:08:50;;;;;;;27.03;12.73;;;4.40;99.90;;;;;;5033191;28;20616;-74
2021/03/21 03:11:19;;;;;;;26.07;12.10;;;4.40;99.90;;;;;;5041082;28;20472;-74
2021/03/21 03:13:49;;;;;;;29.40;13.47;;;4.40;99.90;;;;;;5035312;28;20290;-74
2021/03/21 03:16:22;;;;;;;30.37;12.77;;;4.40;99.90;;;;;;5041648;28;20640;-74
2021/03/21 03:18:58;;;;;;;24.17;12.03;;;4.40;99.90;;;;;;5038851;28;20208;-74
2021/03/21 03:21:40;;;;;;;23.90;11.40;;;4.40;99.90;;;;;;5043488;28;20380;-75
2021/03/21 03:24:11;;;;;;;23.97;11.47;;;4.30;99.90;;;;;;5038632;28;20278;-74
2021/03/21 03:26:46;;;;;;;25.20;12.20;;;4.40;99.90;;;;;;5039593;28;20302;-74
2021/03/21 03:29:18;;;;;;;22.13;11.63;;;4.50;99.90;;;;;;5037956;28;20682;-75
2021/03/21 03:31:49;;;;;;;21.17;10.03;;;4.40;99.90;;;;;;5040023;28;20207;-75
2021/03/21 03:34:16;;;;;;;18.63;9.30;;;4.40;99.90;;;;;;5040725;28;20214;-74
2021/03/21 03:36:42;;;;;;;19.30;10.13;;;4.40;99.90;;;;;;5033692;28;20539;-73
2021/03/21 03:39:09;;;;;;;18.67;9.50;;;4.40;99.90;;;;;;5037460;28;20295;-75
2021/03/21 03:41:40;;;;;;;17.90;9.67;;;4.50;99.90;;;;;;5034363;28;20282;-74
2021/03/21 03:44:24;;;;;;;16.97;9.00;;;4.50;99.90;;;;;;5037056;28;20207;-75
2021/03/21 03:46:59;;;;;;;17.33;9.17;;;4.40;99.90;;;;;;5040172;28;20413;-74
2021/03/21 03:49:37;;;;;;;18.70;9.63;;;4.40;99.90;;;;;;5033698;28;20238;-74
2021/03/21 03:52:31;;;;;;;19.90;9.53;;;4.40;99.90;;;;;;5037095;28;20199;-74
2021/03/21 03:55:03;;;;;;;16.97;8.47;;;4.50;99.90;;;;;;5034022;28;20293;-75
2021/03/21 03:57:34;;;;;;;18.30;9.40;;;4.50;99.90;;;;;;5034032;28;20302;-75
2021/03/21 04:00:20;;;;;;;19.50;9.17;;;4.50;99.90;;;;;;5032813;28;20304;-75
2021/03/21 04:02:59;;;;;;;18.53;9.30;;;4.50;99.90;;;;;;5034782;28;20413;-75
2021/03/21 04:05:35;;;;;;;17.33;9.00;;;4.40;99.90;;;;;;5033611;28;20258;-75
2021/03/21 04:08:08;;;;;;;19.57;9.73;;;4.40;99.90;;;;;;5033614;28;20600;-75
2021/03/21 04:10:39;;;;;;;19.23;9.33;;;4.50;99.90;;;;;;5033826;28;20223;-74
2021/03/21 04:13:13;;;;;;;18.30;9.40;;;4.50;99.90;;;;;;5036009;28;20580;-74
2021/03/21 04:15:44;;;;;;;18.90;9.07;;;4.50;99.90;;;;;;5038355;28;20792;-74
2021/03/21 04:18:17;;;;;;;17.37;8.37;;;4.50;99.90;;;;;;5034436;28;20679;-75
2021/03/21 04:20:48;;;;;;;16.83;8.50;;;4.50;99.90;;;;;;5034096;28;20222;-74
2021/03/21 04:23:20;;;;;;;14.30;7.53;;;4.50;99.90;;;;;;5036109;28;20195;-75
2021/03/21 04:25:52;;;;;;;17.13;8.37;;;4.40;99.90;;;;;;5036327;28;20318;-74
2021/03/21 04:28:23;;;;;;;14.20;7.50;;;4.40;99.90;;;;;;5033833;28;20203;-75
2021/03/21 04:30:54;;;;;;;17.40;8.23;;;4.30;99.90;;;;;;5037110;28;20379;-75
2021/03/21 04:33:26;;;;;;;16.53;8.30;;;4.40;99.90;;;;;;5036553;28;20208;-74
2021/03/21 04:35:58;;;;;;;16.83;8.00;;;4.40;99.90;;;;;;5032647;28;20294;-74
2021/03/21 04:38:28;;;;;;;15.50;7.70;;;4.40;99.90;;;;;;5032800;28;20210;-75
2021/03/21 04:40:56;;;;;;;15.57;7.50;;;4.40;99.90;;;;;;5035664;28;20229;-74
2021/03/21 04:43:26;;;;;;;14.47;7.13;;;4.40;99.90;;;;;;5037529;28;20645;-74
2021/03/21 04:45:56;;;;;;;15.73;7.50;;;4.40;99.90;;;;;;5038692;28;20223;-74
2021/03/21 04:48:27;;;;;;;14.07;7.27;;;4.40;99.90;;;;;;5035828;28;20294;-74
2021/03/21 04:51:00;;;;;;;15.07;7.20;;;4.30;99.90;;;;;;5037139;28;20663;-74
2021/03/21 04:53:36;;;;;;;14.00;6.87;;;4.30;99.90;;;;;;5037612;28;20286;-74
2021/03/21 04:56:08;;;;;;;14.07;7.37;;;4.30;99.90;;;;;;5040399;28;20657;-74
2021/03/21 04:58:39;;;;;;;13.57;7.37;;;4.30;99.90;;;;;;5035802;28;20505;-74
2021/03/21 05:01:10;;;;;;;14.57;7.03;;;4.30;99.90;;;;;;5035513;28;20367;-73
2021/03/21 05:03:41;;;;;;;11.93;6.30;;;4.30;99.90;;;;;;5039524;28;20622;-75
2021/03/21 05:06:14;;;;;;;14.10;7.37;;;4.30;99.90;;;;;;5039025;28;20753;-74
2021/03/21 05:08:47;;;;;;;14.63;7.17;;;4.30;99.90;;;;;;5035799;28;20234;-73
2021/03/21 05:11:16;;;;;;;13.83;7.27;;;4.30;99.90;;;;;;5037797;28;20223;-74
2021/03/21 05:13:53;;;;;;;12.70;6.77;;;4.40;99.90;;;;;;5043069;28;20234;-74
2021/03/21 05:16:25;;;;;;;13.53;7.60;;;4.40;99.90;;;;;;5047916;28;20740;-74
2021/03/21 05:19:03;;;;;;;14.27;7.07;;;4.40;99.90;;;;;;5038875;28;20273;-74
2021/03/21 05:21:37;;;;;;;15.40;7.40;;;4.40;99.90;;;;;;5037962;28;20223;-74
2021/03/21 05:24:12;;;;;;;16.93;7.73;;;4.40;99.90;;;;;;5038959;28;20206;-75
2021/03/21 05:26:43;;;;;;;15.77;8.03;;;4.40;99.90;;;;;;5038550;28;20322;-75
2021/03/21 05:29:47;;;;;;;17.90;9.07;;;4.40;99.90;;;;;;5041990;28;20239;-75
2021/03/21 05:32:16;;;;;;;18.80;8.27;;;4.40;99.90;;;;;;5037055;28;20242;-75
2021/03/21 05:34:44;;;;;;;19.33;9.13;;;4.30;99.90;;;;;;5044360;23;20815;-73
2021/03/21 05:37:24;;;;;;;17.20;8.70;;;4.40;99.90;;;;;;5021489;28;20235;-73
2021/03/21 05:39:59;;;;;;;17.77;8.80;;;4.40;99.90;;;;;;5017180;28;20228;-71
2021/03/21 05:43:02;;;;;;;19.50;9.17;;;4.30;99.90;;;;;;5018782;28;20298;-71
2021/03/21 05:46:15;;;;;;;17.70;8.83;;;4.30;99.90;;;;;;5020009;28;20262;-71
2021/03/21 05:49:18;;;;;;;16.77;7.80;;;4.40;99.90;;;;;;5019642;28;20307;-71
2021/03/21 05:52:01;;;;;;;18.53;8.03;;;4.40;99.90;;;;;;5001034;28;20298;-71
2021/03/21 05:54:59;;;;;;;14.23;6.90;;;4.40;99.90;;;;;;5018902;28;20203;-71
2021/03/21 05:58:04;;;;;;;16.10;7.67;;;4.40;99.90;;;;;;5024259;28;20208;-71
2021/03/21 06:00:54;;;;;;;15.33;7.27;;;4.40;99.90;;;;;;5021900;28;20306;-71
2021/03/21 06:03:51;;;;;;;15.07;6.77;;;4.40;99.90;;;;;;5019527;28;20215;-71
2021/03/21 06:07:14;;;;;;;12.37;6.57;;;4.40;99.90;;;;;;5019708;28;20239;-71
2021/03/21 06:09:53;;;;;;;14.47;6.27;;;4.40;99.90;;;;;;5020579;28;20876;-71
2021/03/21 06:12:45;;;;;;;13.27;6.23;;;4.40;99.90;;;;;;5021796;28;20296;-71
2021/03/21 06:15:45;;;;;;;13.23;5.80;;;4.40;99.90;;;;;;5018562;28;20283;-71
2021/03/21 06:18:41;;;;;;;12.87;6.03;;;4.50;99.90;;;;;;5020073;28;20353;-71
2021/03/21 06:21:55;;;;;;;11.40;5.80;;;4.40;99.90;;;;;;5018581;28;20255;-71
2021/03/21 06:25:06;;;;;;;12.37;5.90;;;4.50;99.90;;;;;;5025497;28;20208;-71
2021/03/21 06:28:21;;;;;;;12.47;5.57;;;4.50;99.90;;;;;;4934189;28;20760;-71
2021/03/21 06:31:29;;;;;;;10.33;5.30;;;4.50;99.90;;;;;;5016087;28;20313;-71
2021/03/21 06:34:06;;;;;;;12.07;5.77;;;4.50;99.90;;;;;;4987588;28;20295;-71
2021/03/21 06:36:40;;;;;;;11.60;5.80;;;4.50;99.90;;;;;;5017030;28;20204;-72
2021/03/21 06:39:45;;;;;;;12.77;6.27;;;4.50;99.90;;;;;;5026759;28;20675;-71
2021/03/21 06:42:41;;;;;;;11.03;5.63;;;4.50;99.90;;;;;;5017338;28;20238;-71
2021/03/21 06:45:43;;;;;;;12.83;6.33;;;4.60;99.90;;;;;;5018342;28;20645;-71
2021/03/21 06:48:32;;;;;;;12.17;5.47;;;4.60;99.90;;;;;;5020972;28;20291;-71
2021/03/21 06:51:25;;;;;;;11.03;5.80;;;4.60;99.90;;;;;;5019653;28;20316;-71
2021/03/21 06:53:58;;;;;;;11.97;5.97;;;4.70;99.90;;;;;;5016717;28;20244;-71
2021/03/21 06:56:58;;;;;;;10.43;5.37;;;4.70;99.90;;;;;;5019089;28;20246;-71
2021/03/21 06:59:53;;;;;;;8.37;4.43;;;4.70;99.90;;;;;;5018139;28;20295;-72
2021/03/21 07:02:56;;;;;;;12.77;5.17;;;4.80;99.90;;;;;;5016390;28;20204;-71
2021/03/21 07:05:56;;;;;;;10.63;5.40;;;4.80;99.90;;;;;;5016025;28;20223;-72
2021/03/21 07:08:39;;;;;;;9.83;4.60;;;4.80;99.90;;;;;;5023976;28;20239;-71
2021/03/21 07:11:39;;;;;;;9.23;4.63;;;4.80;99.90;;;;;;5017027;28;20224;-71
2021/03/21 07:14:43;;;;;;;9.60;5.27;;;4.90;99.90;;;;;;5019095;28;20283;-71
2021/03/21 07:17:35;;;;;;;9.07;4.67;;;5.00;99.90;;;;;;5017201;28;20505;-71
2021/03/21 07:20:40;;;;;;;8.57;4.47;;;5.00;99.90;;;;;;5014556;28;20251;-71
2021/03/21 07:23:56;;;;;;;10.17;4.13;;;5.00;99.90;;;;;;5020606;28;20291;-71
2021/03/21 07:27:07;;;;;;;7.50;3.90;;;5.10;99.90;;;;;;5007640;28;20306;-72
2021/03/21 07:29:47;;;;;;;8.60;3.97;;;5.20;99.90;;;;;;5016993;28;20228;-71
2021/03/21 07:32:48;;;;;;;7.03;3.73;;;5.20;99.90;;;;;;5016181;28;20228;-71
2021/03/21 07:35:45;;;;;;;8.00;3.93;;;5.40;99.90;;;;;;5018490;28;20216;-71
2021/03/21 07:38:22;;;;;;;7.53;3.63;;;5.60;99.90;;;;;;5017632;28;20651;-71
2021/03/21 07:40:51;;;;;;;5.47;3.00;;;5.70;99.90;;;;;;5019377;28;20322;-72
2021/03/21 07:43:33;;;;;;;6.33;3.30;;;5.60;99.90;;;;;;5018966;28;20212;-71
2021/03/21 07:46:33;;;;;;;7.80;3.50;;;5.60;99.90;;;;;;5015931;28;20216;-72
2021/03/21 07:49:18;;;;;;;7.90;3.20;;;5.60;99.90;;;;;;5004570;28;20415;-72
2021/03/21 07:52:02;;;;;;;6.13;3.07;;;5.70;99.90;;;;;;5017605;28;20302;-71
2021/03/21 07:54:35;;;;;;;6.00;2.50;;;5.80;99.90;;;;;;5019098;28;20281;-71
2021/03/21 07:57:10;;;;;;;6.07;2.93;;;5.90;99.90;;;;;;5018189;28;21152;-71
2021/03/21 07:59:40;;;;;;;3.73;2.13;;;6.10;99.90;;;;;;5015234;28;20354;-71
2021/03/21 08:02:10;;;;;;;6.27;2.37;;;6.10;99.90;;;;;;5015384;28;20208;-71
2021/03/21 08:04:47;;;;;;;3.63;2.27;;;6.20;99.90;;;;;;5018731;28;20294;-71
2021/03/21 08:07:16;;;;;;;4.87;2.60;;;6.20;99.90;;;;;;5016772;28;20597;-71
2021/03/21 08:09:43;;;;;;;3.83;2.03;;;6.30;99.90;;;;;;5016773;28;20649;-72
2021/03/21 08:12:30;;;;;;;3.67;2.07;;;6.30;99.90;;;;;;5019075;28;20758;-71
2021/03/21 08:15:06;;;;;;;5.13;2.70;;;6.20;99.90;;;;;;5015904;28;20239;-72
2021/03/21 08:17:39;;;;;;;3.73;2.20;;;6.20;99.90;;;;;;5023035;28;20203;-71
2021/03/21 08:20:16;;;;;;;3.20;1.90;;;6.10;99.90;;;;;;5016024;28;20224;-71
2021/03/21 08:22:43;;;;;;;3.83;2.03;;;6.10;99.90;;;;;;5018317;28;20730;-71
2021/03/21 08:25:25;;;;;;;3.13;1.80;;;6.10;99.90;;;;;;5015315;28;20219;-71
2021/03/21 08:27:53;;;;;;;2.53;1.80;;;6.00;99.90;;;;;;5018495;28;20283;-72
2021/03/21 08:30:23;;;;;;;3.53;1.90;;;5.90;99.90;;;;;;5016524;28;20229;-71
2021/03/21 08:32:53;;;;;;;3.70;2.07;;;6.20;99.90;;;;;;5013308;28;20227;-72
2021/03/21 08:35:22;;;;;;;3.10;1.70;;;6.80;99.90;;;;;;5013543;28;20308;-72
2021/03/21 08:37:50;;;;;;;2.77;1.63;;;7.40;99.90;;;;;;5017965;28;20290;-72
2021/03/21 08:40:31;;;;;;;2.57;1.50;;;7.90;99.90;;;;;;5016928;28;20266;-72
2021/03/21 08:43:13;;;;;;;2.93;1.60;;;8.40;99.90;;;;;;5016117;28;20579;-72
2021/03/21 08:45:44;;;;;;;2.73;1.50;;;9.10;99.90;;;;;;5015483;28;20338;-72
2021/03/21 08:48:30;;;;;;;2.63;1.70;;;9.90;99.90;;;;;;5017034;28;20201;-72
2021/03/21 08:50:59;;;;;;;2.20;1.43;;;10.30;99.90;;;;;;5014401;28;20304;-72
2021/03/21 08:53:34;;;;;;;2.10;1.40;;;10.10;99.90;;;;;;5017948;28;20210;-72
2021/03/21 08:56:19;;;;;;;4.23;1.73;;;9.80;99.90;;;;;;5023539;28;20281;-72
2021/03/21 08:58:48;;;;;;;2.43;1.60;;;9.20;99.90;;;;;;5017574;28;20570;-72
2021/03/21 09:01:20;;;;;;;2.03;1.20;;;8.60;99.90;;;;;;5018961;28;20247;-72
2021/03/21 09:03:48;;;;;;;2.83;1.30;;;8.20;99.90;;;;;;5012244;28;20215;-72
2021/03/21 09:06:35;;;;;;;2.90;1.10;;;8.10;99.90;;;;;;5016558;28;20443;-71
2021/03/21 09:09:20;;;;;;;1.50;0.90;;;8.00;99.90;;;;;;5016266;28;20205;-72
2021/03/21 09:11:48;;;;;;;2.00;1.23;;;7.90;99.90;;;;;;5016533;28;20295;-72
2021/03/21 09:14:20;;;;;;;5.63;1.20;;;8.10;99.90;;;;;;5019062;28;20243;-71
2021/03/21 09:16:59;;;;;;;2.10;0.93;;;8.40;99.90;;;;;;5014643;28;20211;-72
2021/03/21 09:19:29;;;;;;;3.63;1.33;;;8.20;99.90;;;;;;5018202;28;20339;-72
2021/03/21 09:21:56;;;;;;;1.93;1.27;;;8.10;99.90;;;;;;5016221;28;20291;-72
2021/03/21 09:24:26;;;;;;;2.80;1.27;;;8.40;99.90;;;;;;5017927;28;20235;-72
2021/03/21 09:26:55;;;;;;;2.30;1.30;;;8.30;99.90;;;;;;5018653;28;20252;-71
2021/03/21 09:29:29;;;;;;;3.90;1.33;;;8.40;99.90;;;;;;5020559;28;20728;-72
2021/03/21 09:32:00;;;;;;;1.60;1.00;;;8.30;99.90;;;;;;5018341;28;20300;-71
2021/03/21 09:34:54;;;;;;;3.03;1.27;;;8.10;99.90;;;;;;5021579;28;20216;-72
2021/03/21 09:37:24;;;;;;;2.27;1.20;;;8.10;99.90;;;;;;5023405;28;20204;-72
2021/03/21 09:39:58;;;;;;;1.90;1.00;;;8.00;99.90;;;;;;5019801;28;20251;-71
2021/03/21 09:42:25;;;;;;;2.23;1.27;;;8.20;99.90;;;;;;5018534;28;20211;-72
2021/03/21 09:44:51;;;;;;;2.83;1.17;;;8.30;99.90;;;;;;5020576;28;20204;-72
2021/03/21 09:47:31;;;;;;;2.37;1.00;;;8.60;99.90;;;;;;5016868;28;20640;-72
2021/03/21 09:50:18;;;;;;;1.93;1.30;;;8.60;99.90;;;;;;5024480;28;20265;-71
2021/03/21 09:52:50;;;;;;;2.73;1.30;;;8.20;99.90;;;;;;5014706;28;20761;-72
2021/03/21 09:55:30;;;;;;;3.73;1.13;;;8.00;99.90;;;;;;5018269;28;20241;-70
2021/03/21 09:58:09;;;;;;;4.07;1.47;;;7.90;99.90;;;;;;5020329;28;20203;-70
2021/03/21 10:00:39;;;;;;;2.40;1.20;;;7.70;99.90;;;;;;5020120;28;20595;-70
2021/03/21 10:03:11;;;;;;;2.07;1.40;;;7.80;99.90;;;;;;5016194;28;20204;-71
2021/03/21 10:05:44;;;;;;;2.67;1.50;;;8.00;99.90;;;;;;5019881;28;20276;-70
2021/03/21 10:08:17;;;;;;;1.83;1.13;;;8.10;99.90;;;;;;5018131;28;20276;-70
2021/03/21 10:10:52;;;;;;;2.23;1.07;;;8.20;99.90;;;;;;5018086;28;20236;-70
2021/03/21 10:13:30;;;;;;;2.33;1.00;;;8.40;99.90;;;;;;5018939;28;20215;-71
2021/03/21 10:16:31;;;;;;;4.73;1.17;;;8.60;99.90;;;;;;5019011;28;20282;-71
2021/03/21 10:19:00;;;;;;;2.37;0.80;;;8.90;99.90;;;;;;4986393;28;21064;-71
2021/03/21 10:21:35;;;;;;;2.30;1.20;;;9.10;99.90;;;;;;5016886;28;20721;-71
2021/03/21 10:24:07;;;;;;;1.07;0.77;;;9.40;99.90;;;;;;5018210;28;20279;-71
2021/03/21 10:26:35;;;;;;;3.17;1.43;;;9.80;99.90;;;;;;5015746;28;20288;-71
2021/03/21 10:29:23;;;;;;;3.20;1.17;;;9.60;99.90;;;;;;5019091;28;20294;-71
2021/03/21 10:32:20;;;;;;;3.37;1.40;;;9.80;99.90;;;;;;5014067;28;20703;-69
2021/03/21 10:34:48;;;;;;;4.10;1.47;;;9.40;99.90;;;;;;5013731;28;20635;-70
2021/03/21 10:37:47;;;;;;;2.33;1.33;;;9.10;99.90;;;;;;5013752;28;20234;-71
2021/03/21 10:40:42;;;;;;;3.97;1.60;;;8.80;99.90;;;;;;5022362;28;20301;-70
2021/03/21 10:43:35;;;;;;;4.83;1.67;;;8.50;99.90;;;;;;5014088;28;20290;-70
2021/03/21 10:46:01;;;;;;;3.97;1.70;;;8.50;99.90;;;;;;5008726;28;20223;-70
2021/03/21 10:48:52;;;;;;;5.17;1.57;;;8.30;99.90;;;;;;5014391;28;20200;-70
2021/03/21 10:51:19;;;;;;;8.40;1.90;;;8.20;99.90;;;;;;5013207;28;21012;-71
2021/03/21 10:54:23;;;;;;;4.37;1.60;;;8.00;99.90;;;;;;5015231;28;20631;-71
2021/03/21 10:57:31;;;;;;;5.90;2.00;;;7.90;99.90;;;;;;5017793;28;20694;-70
2021/03/21 11:00:21;;;;;;;5.87;1.87;;;7.80;99.90;;;;;;5003547;28;20310;-71
2021/03/21 11:02:51;;;;;;;3.83;1.50;;;7.90;99.90;;;;;;5005224;28;20200;-71
2021/03/21 11:05:33;;;;;;;4.00;1.50;;;8.10;99.90;;;;;;5009735;28;20204;-71
2021/03/21 11:08:09;;;;;;;6.43;1.70;;;8.30;99.90;;;;;;5018852;28;20707;-72
2021/03/21 11:10:37;;;;;;;6.40;1.43;;;8.70;99.90;;;;;;5021381;28;20676;-71
2021/03/21 11:13:04;;;;;;;3.90;1.70;;;9.30;99.90;;;;;;5015305;28;20232;-71
2021/03/21 11:15:37;;;;;;;10.07;1.70;;;9.70;99.90;;;;;;5013975;28;20761;-71
2021/03/21 11:18:18;;;;;;;7.17;1.60;;;9.30;99.90;;;;;;5009853;28;20206;-71
2021/03/21 11:20:46;;;;;;;8.80;1.90;;;9.10;99.90;;;;;;5016252;28;20238;-71
2021/03/21 11:23:19;;;;;;;7.10;1.60;;;9.00;99.90;;;;;;5007998;28;20212;-71
2021/03/21 11:25:46;;;;;;;7.10;1.57;;;8.70;99.90;;;;;;4992258;28;20242;-72
2021/03/21 11:28:25;;;;;;;5.33;1.33;;;8.70;99.90;;;;;;4990444;28;20212;-71
2021/03/21 11:30:53;;;;;;;11.00;1.53;;;8.80;99.90;;;;;;4992059;28;20219;-70
2021/03/21 11:33:32;;;;;;;7.53;1.63;;;8.60;99.90;;;;;;4992349;28;20768;-70
2021/03/21 11:36:29;;;;;;;8.50;2.10;;;8.60;99.90;;;;;;5002540;28;20814;-71
2021/03/21 11:38:56;;;;;;;10.03;1.87;;;8.90;99.90;;;;;;4973508;28;20258;-71
2021/03/21 11:41:36;;;;;;;10.27;1.70;;;9.00;99.90;;;;;;5003769;28;20318;-71
2021/03/21 11:44:10;;;;;;;15.10;1.93;;;9.20;99.90;;;;;;5008635;28;20631;-71
2021/03/21 11:46:37;;;;;;;8.53;1.80;;;9.20;99.90;;;;;;5010979;28;20344;-71
2021/03/21 11:49:04;;;;;;;10.50;2.47;;;9.20;99.90;;;;;;5012696;28;20300;-71
2021/03/21 11:51:32;;;;;;;9.50;2.27;;;8.80;99.90;;;;;;5010929;28;20310;-71
2021/03/21 11:53:59;;;;;;;11.30;2.37;;;9.00;99.90;;;;;;5006687;28;20546;-71
2021/03/21 11:56:32;;;;;;;7.53;1.73;;;8.80;99.90;;;;;;5010638;28;21038;-72
2021/03/21 11:59:04;;;;;;;7.43;1.93;;;8.70;99.90;;;;;;5007798;28;20346;-71
2021/03/21 12:01:39;;;;;;;9.57;1.90;;;9.00;99.90;;;;;;5012876;28;20324;-71
2021/03/21 12:04:07;;;;;;;7.70;2.00;;;9.20;99.90;;;;;;5010627;28;20239;-71
2021/03/21 12:06:40;;;;;;;12.47;2.30;;;8.90;99.90;;;;;;5013307;28;20230;-71
2021/03/21 12:09:25;;;;;;;7.53;2.00;;;8.80;99.90;;;;;;5012681;28;20253;-71
2021/03/21 12:11:52;;;;;;;10.80;2.70;;;8.80;99.90;;;;;;5007905;28;20235;-71
2021/03/21 12:14:45;;;;;;;16.73;3.07;;;8.80;99.90;;;;;;5014158;28;20295;-72
2021/03/21 12:17:38;;;;;;;15.10;2.63;;;9.20;99.90;;;;;;5011442;28;20211;-71
2021/03/21 12:20:41;;;;;;;11.13;1.90;;;8.80;99.90;;;;;;4997315;28;21070;-72
2021/03/21 12:23:35;;;;;;;11.13;2.30;;;8.70;99.90;;;;;;5005615;28;20212;-72
2021/03/21 12:29:43;;;;;;;13.53;2.60;;;8.60;99.90;;;;;;5007732;28;20187;-83
2021/03/21 12:32:36;;;;;;;13.53;2.73;;;8.60;99.90;;;;;;5009536;28;20529;-85
2021/03/21 18:28:41;;;;;;;25.27;4.63;;;5.20;99.90;;;;;;5024656;23;20234;-82
2021/03/21 18:31:11;;;;;;;20.07;3.47;;;5.10;99.90;;;;;;5012676;28;20204;-84
2021/03/21 18:33:40;;;;;;;24.20;3.17;;;5.00;99.90;;;;;;5008030;28;20271;-83
2021/03/21 18:36:10;;;;;;;23.87;3.30;;;5.10;99.90;;;;;;5011743;28;20290;-83
2021/03/21 18:38:37;;;;;;;21.60;3.30;;;5.00;99.90;;;;;;5010839;28;20274;-84
2021/03/21 18:41:04;;;;;;;22.90;3.87;;;5.00;99.90;;;;;;5013894;28;20204;-84
2021/03/21 18:43:31;;;;;;;27.37;2.97;;;5.00;99.90;;;;;;5011788;28;20276;-83
2021/03/21 18:45:58;;;;;;;25.83;3.87;;;5.00;99.90;;;;;;5015212;28;20196;-84
2021/03/21 18:48:26;;;;;;;16.93;3.20;;;5.00;99.90;;;;;;5014746;28;20242;-83
2021/03/21 18:50:53;;;;;;;24.53;3.43;;;5.00;99.90;;;;;;5012215;28;20208;-83
2021/03/21 18:53:20;;;;;;;25.67;4.13;;;5.00;99.90;;;;;;5011824;28;20581;-83
2021/03/21 18:55:47;;;;;;;34.60;3.90;;;5.00;99.90;;;;;;5010973;28;20671;-83
2021/03/21 18:58:13;;;;;;;19.83;3.90;;;5.00;99.90;;;;;;5012641;28;20262;-83
2021/03/21 19:00:42;;;;;;;27.13;3.47;;;5.00;99.90;;;;;;5011890;28;20207;-83
2021/03/21 19:03:09;;;;;;;23.90;3.33;;;5.00;99.90;;;;;;5008574;28;20216;-83
2021/03/21 19:05:36;;;;;;;17.27;3.00;;;4.90;99.90;;;;;;5014628;28;20204;-83
2021/03/21 19:08:03;;;;;;;28.83;3.67;;;4.90;99.90;;;;;;5013762;28;20232;-82
2021/03/21 19:10:33;;;;;;;19.70;3.53;;;4.90;99.90;;;;;;5014090;28;20205;-83
2021/03/21 19:13:00;;;;;;;23.87;3.80;;;5.00;99.90;;;;;;5015656;28;20263;-84
2021/03/21 19:15:27;;;;;;;23.40;3.53;;;4.90;99.90;;;;;;5014267;28;20267;-83
2021/03/21 19:17:56;;;;;;;22.90;3.67;;;4.90;99.90;;;;;;5016311;28;20248;-83
2021/03/21 19:20:24;;;;;;;28.13;3.70;;;4.90;99.90;;;;;;5014760;28;20220;-83
2021/03/21 19:22:51;;;;;;;31.60;6.27;;;4.90;99.90;;;;;;5011634;28;20692;-84
2021/03/21 19:25:20;;;;;;;31.63;3.73;;;4.80;99.90;;;;;;5013908;28;20232;-84
2021/03/21 19:27:49;;;;;;;23.37;3.20;;;4.80;99.90;;;;;;5011241;28;20235;-84
2021/03/21 19:30:17;;;;;;;23.73;2.73;;;4.80;99.90;;;;;;5011134;28;20206;-83
2021/03/21 19:32:45;;;;;;;21.60;3.13;;;4.80;99.90;;;;;;5013050;28;20215;-83